Hauptseite
METAR-TAF:

METAR-TAF

Flughäfen :

Flughafen Garoua

Garoua, Kamerun

Breite: 09-20N, Länge: 013-23E, Höhe: 242 m

Beobachtung

Neuester Wetterbericht von vor 36 Minuten, um 19:00 UTC
Wind 3 kt aus West/Nordwest
Temperatur 26°C
Luftfeuchtigkeit 84%
Luftdruck 1012 hPa
Sichtweite 10 km oder mehr
Leicht bewölkt in der Höhe von 1300 ft

METAR: FKKR 201900Z 29003KT 9999 FEW013 26/23 Q1012 NOSIG

Zeit: 20:36 (19:36 UTC)

Prognose

Neuester Wetterbericht von vor 14 Stunden und 36 Minuten, um 05:00 UTC
Gültige Prognose vom 20 um 06 UTC bis 20 um 18 UTC
Wind 8 kt aus West
Sichtweite 10 km oder mehr
Aufgelockert bewölkt in der Höhe von 1400 ft

TAF: FKKR 200500Z 2006/2018 28008KT 9999 SCT014

Wetterbeobachtungen und Prognosen von mehr als 4000 Flughäfen (METAR und TAF Bericht).

Die verfügbaren Stationen werden durch gelbe und rote Markierungen auf der Karte dargestellt.

Führen Sie die Maus auf sie, um den Namen der Station zu sehen.

Darauf klicken, um die Beobachtung von Wetterbeobachtungen und Prognosen zu sehen.

Um die Karte zu ändern : klicken Sie auf den grünen Tasten mit einem schwarzen Kreuz Zum Vergrößern, auf den grünen Button mit einem Gedankenstrich zu verkleinern, oder auf die grünen Pfeile für benachbarte Karten.


METAR-TAF: